createdAt,value
2019-02-04T00:00:29.009Z,28.80
2019-02-04T00:02:58.746Z,28.73
2019-02-04T00:05:27.621Z,28.85
2019-02-04T00:07:56.421Z,29.85
2019-02-04T00:10:25.198Z,29.65
2019-02-04T00:12:54.013Z,28.67
2019-02-04T00:15:22.784Z,27.70
2019-02-04T00:17:51.712Z,26.27
2019-02-04T00:20:20.468Z,28.25
2019-02-04T00:22:49.214Z,29.15
2019-02-04T00:25:17.980Z,32.40
2019-02-04T00:27:46.724Z,28.32
2019-02-04T00:30:18.492Z,28.20
2019-02-04T00:32:47.245Z,28.77
2019-02-04T00:35:16.022Z,30.95
2019-02-04T00:37:44.765Z,30.20
2019-02-04T00:40:27.673Z,28.55
2019-02-04T00:42:56.505Z,30.02
2019-02-04T00:45:25.633Z,31.17
2019-02-04T00:47:54.379Z,30.55
2019-02-04T00:50:23.625Z,32.00
2019-02-04T00:52:52.666Z,29.70
2019-02-04T00:55:21.604Z,29.75
2019-02-04T00:57:50.382Z,29.92
2019-02-04T01:00:24.456Z,28.20
2019-02-04T01:02:53.429Z,30.75
2019-02-04T01:05:22.340Z,31.30
2019-02-04T01:07:51.512Z,27.80
2019-02-04T01:10:23.292Z,30.17
2019-02-04T01:12:52.177Z,29.93
2019-02-04T01:15:20.921Z,28.42
2019-02-04T01:17:49.689Z,29.33
2019-02-04T01:20:21.421Z,26.70
2019-02-04T01:22:50.509Z,27.25
2019-02-04T01:25:19.513Z,27.13
2019-02-04T01:27:48.293Z,27.10
2019-02-04T01:30:19.825Z,29.25
2019-02-04T01:32:49.294Z,28.67
2019-02-04T01:35:18.136Z,26.65
2019-02-04T01:37:47.184Z,26.50
2019-02-04T01:40:20.673Z,28.67
2019-02-04T01:42:49.407Z,28.25
2019-02-04T01:45:18.353Z,27.23
2019-02-04T01:47:47.206Z,26.68
2019-02-04T01:50:21.118Z,27.93
2019-02-04T01:52:50.370Z,26.57
2019-02-04T01:55:19.242Z,25.65
2019-02-04T01:57:50.576Z,26.20
2019-02-04T02:00:25.021Z,27.55
2019-02-04T02:02:54.161Z,24.65
2019-02-04T02:05:23.012Z,26.17
2019-02-04T02:07:51.748Z,26.02
2019-02-04T02:10:22.733Z,24.13
2019-02-04T02:12:51.746Z,26.48
2019-02-04T02:15:20.714Z,26.23
2019-02-04T02:17:49.961Z,25.50
2019-02-04T02:20:21.504Z,26.57
2019-02-04T02:22:50.513Z,27.13
2019-02-04T02:25:19.348Z,26.55
2019-02-04T02:27:48.229Z,26.00
2019-02-04T02:30:22.741Z,26.57
2019-02-04T02:32:52.502Z,25.93
2019-02-04T02:35:21.249Z,25.10
2019-02-04T02:37:50.021Z,26.95
2019-02-04T02:40:27.307Z,26.90
2019-02-04T02:42:56.075Z,26.37
2019-02-04T02:45:24.855Z,27.95
2019-02-04T02:47:53.621Z,24.80
2019-02-04T02:50:22.537Z,25.50
2019-02-04T02:52:51.317Z,27.42
2019-02-04T02:55:20.345Z,26.35
2019-02-04T02:57:49.131Z,24.55
2019-02-04T03:00:23.095Z,26.33
2019-02-04T03:02:51.877Z,26.77
2019-02-04T03:05:20.921Z,28.10
2019-02-04T03:07:49.705Z,26.82
2019-02-04T03:10:27.166Z,25.48
2019-02-04T03:12:55.928Z,25.47
2019-02-04T03:15:24.676Z,27.22
2019-02-04T03:17:53.432Z,26.20
2019-02-04T03:20:22.177Z,26.80
2019-02-04T03:22:51.009Z,26.15
2019-02-04T03:25:19.789Z,26.40
2019-02-04T03:27:48.533Z,26.90
2019-02-04T03:30:22.976Z,26.67
2019-02-04T03:32:51.695Z,27.07
2019-02-04T03:35:20.461Z,26.52
2019-02-04T03:37:52.089Z,25.80
2019-02-04T03:40:25.144Z,26.35
2019-02-04T03:42:53.875Z,27.10
2019-02-04T03:45:22.742Z,25.90
2019-02-04T03:48:03.754Z,27.02
2019-02-04T03:50:22.168Z,28.77
2019-02-04T03:52:51.521Z,26.70
2019-02-04T03:55:20.495Z,28.90
2019-02-04T03:57:49.308Z,26.48
2019-02-04T04:00:30.081Z,25.05
2019-02-04T04:02:58.830Z,26.37
2019-02-04T04:05:27.993Z,25.23
2019-02-04T04:07:56.881Z,25.72
2019-02-04T04:10:25.616Z,28.17
2019-02-04T04:12:54.397Z,28.30
2019-02-04T04:15:23.241Z,25.17
2019-02-04T04:17:52.018Z,26.42
2019-02-04T04:20:21.743Z,26.05
2019-02-04T04:22:50.529Z,26.60
2019-02-04T04:25:19.269Z,27.98
2019-02-04T04:27:48.537Z,30.82
2019-02-04T04:30:22.669Z,30.82
2019-02-04T04:32:51.606Z,28.65
2019-02-04T04:35:20.549Z,27.55
2019-02-04T04:37:49.725Z,28.40
2019-02-04T04:40:18.733Z,30.43
2019-02-04T04:42:47.689Z,30.35
2019-02-04T04:45:18.430Z,28.62
2019-02-04T04:47:47.625Z,27.82
2019-02-04T04:50:16.497Z,30.85
2019-02-04T04:52:45.539Z,30.60
2019-02-04T04:55:25.248Z,27.77
2019-02-04T04:57:54.398Z,31.12
2019-02-04T05:00:29.470Z,29.33
2019-02-04T05:02:58.331Z,29.75
2019-02-04T05:05:27.096Z,30.00
2019-02-04T05:07:55.941Z,29.70
2019-02-04T05:10:24.718Z,29.25
2019-02-04T05:12:53.500Z,31.95
2019-02-04T05:15:27.413Z,30.12
2019-02-04T05:17:56.216Z,29.52
2019-02-04T05:20:25.294Z,28.35
2019-02-04T05:22:54.239Z,29.00
2019-02-04T05:25:23.001Z,27.63
2019-02-04T05:27:52.397Z,28.57
2019-02-04T05:30:23.733Z,28.05
2019-02-04T05:32:52.594Z,27.10
2019-02-04T05:35:21.358Z,27.40
2019-02-04T05:37:50.399Z,27.75
2019-02-04T05:40:19.561Z,30.20
2019-02-04T05:42:48.613Z,28.52
2019-02-04T05:45:19.341Z,28.40
2019-02-04T05:47:48.105Z,26.65
2019-02-04T05:50:18.445Z,27.07
2019-02-04T05:52:47.820Z,29.50
2019-02-04T05:55:17.746Z,29.10
2019-02-04T05:57:46.508Z,30.20
2019-02-04T06:00:22.401Z,27.93
2019-02-04T06:02:51.207Z,28.30
2019-02-04T06:05:19.945Z,25.15
2019-02-04T06:07:48.874Z,26.97
2019-02-04T06:10:18.037Z,27.13
2019-02-04T06:12:46.818Z,26.87
2019-02-04T06:15:16.960Z,26.80
2019-02-04T06:17:45.741Z,27.98
2019-02-04T06:20:28.424Z,26.70
2019-02-04T06:22:57.413Z,28.63
2019-02-04T06:25:26.258Z,28.17
2019-02-04T06:27:55.045Z,27.15
2019-02-04T06:30:23.885Z,27.90
2019-02-04T06:32:52.649Z,27.30
2019-02-04T06:35:23.175Z,29.18
2019-02-04T06:37:52.045Z,27.52
2019-02-04T06:40:20.813Z,26.83
2019-02-04T06:42:49.557Z,25.82
2019-02-04T06:45:18.837Z,29.87
2019-02-04T06:47:48.713Z,28.83
2019-02-04T06:50:19.320Z,26.82
2019-02-04T06:52:48.162Z,28.95
2019-02-04T06:55:19.441Z,29.12
2019-02-04T06:57:48.245Z,29.95
2019-02-04T07:00:20.122Z,28.45
2019-02-04T07:02:49.112Z,27.42
2019-02-04T07:05:18.589Z,26.12
2019-02-04T07:07:47.326Z,29.15
2019-02-04T07:10:21.760Z,31.65
2019-02-04T07:12:50.797Z,29.40
2019-02-04T07:15:19.670Z,28.05
2019-02-04T07:17:48.406Z,28.50
2019-02-04T07:20:20.144Z,31.00
2019-02-04T07:22:49.061Z,29.15
2019-02-04T07:25:18.661Z,27.17
2019-02-04T07:27:47.501Z,28.87
2019-02-04T07:30:19.158Z,29.63
2019-02-04T07:32:48.093Z,28.25
2019-02-04T07:35:18.528Z,26.93
2019-02-04T07:37:47.389Z,27.57
2019-02-04T07:40:24.785Z,27.45
2019-02-04T07:42:54.356Z,27.42
2019-02-04T07:45:23.381Z,28.50
2019-02-04T07:47:52.426Z,27.48
2019-02-04T07:50:21.290Z,28.63
2019-02-04T07:52:50.049Z,27.67
2019-02-04T07:55:18.782Z,26.20
2019-02-04T07:57:47.657Z,28.12
2019-02-04T08:00:27.902Z,27.93
2019-02-04T08:02:56.741Z,28.87
2019-02-04T08:05:25.477Z,28.05
2019-02-04T08:07:54.440Z,26.68
2019-02-04T08:10:23.355Z,26.40
2019-02-04T08:13:00.919Z,26.42
2019-02-04T08:15:34.459Z,25.02
2019-02-04T08:18:03.221Z,27.10
2019-02-04T08:20:32.023Z,27.62
2019-02-04T08:23:00.785Z,26.15
2019-02-04T08:25:29.524Z,26.87
2019-02-04T08:27:59.504Z,25.43
2019-02-04T08:30:38.223Z,26.73
2019-02-04T08:33:06.686Z,28.42
2019-02-04T08:35:35.425Z,27.15
2019-02-04T08:38:04.489Z,25.70
2019-02-04T08:40:33.726Z,30.95
2019-02-04T08:43:02.557Z,28.95
2019-02-04T08:45:31.391Z,25.92
2019-02-04T08:48:01.349Z,25.37
2019-02-04T08:50:30.461Z,26.07
2019-02-04T08:52:59.196Z,29.70
2019-02-04T08:55:27.962Z,26.75
2019-02-04T08:57:56.995Z,27.50
2019-02-04T09:00:26.865Z,25.25
2019-02-04T09:02:55.692Z,27.27
2019-02-04T09:05:24.725Z,27.02
2019-02-04T09:07:53.460Z,25.75
2019-02-04T09:10:30.506Z,25.75
2019-02-04T09:12:59.351Z,24.45
2019-02-04T09:17:22.637Z,20.23
2019-02-04T09:19:52.034Z,19.50
2019-02-04T09:22:20.735Z,17.03
2019-02-04T09:24:49.603Z,16.42
2019-02-04T09:27:18.460Z,17.77
2019-02-04T09:29:47.248Z,18.65
2019-02-04T09:32:16.034Z,18.37
2019-02-04T09:34:45.156Z,16.40
2019-02-04T09:37:14.025Z,17.92
2019-02-04T09:39:42.753Z,16.40
2019-02-04T09:42:11.521Z,17.52
2019-02-04T09:44:40.248Z,16.90
2019-02-04T09:47:09.216Z,15.85
2019-02-04T09:49:38.022Z,16.97
2019-02-04T09:52:06.785Z,16.23
2019-02-04T09:54:35.517Z,16.85
2019-02-04T09:57:06.180Z,17.00
2019-02-04T09:59:34.750Z,14.83
2019-02-04T10:02:03.509Z,16.67
2019-02-04T10:04:32.245Z,16.35
2019-02-04T10:07:01.008Z,16.62
2019-02-04T10:09:29.745Z,17.77
2019-02-04T10:11:58.586Z,17.23
2019-02-04T10:14:27.348Z,16.60
2019-02-04T10:16:56.082Z,18.32
2019-02-04T10:19:24.877Z,18.43
2019-02-04T10:21:54.088Z,18.17
2019-02-04T10:24:22.960Z,18.20
2019-02-04T10:26:51.811Z,19.98
2019-02-04T10:29:20.833Z,19.80
2019-02-04T10:31:49.558Z,18.95
2019-02-04T10:34:18.333Z,21.10
2019-02-04T10:36:47.140Z,19.95
2019-02-04T10:39:15.935Z,20.33
2019-02-04T10:41:44.683Z,18.62
2019-02-04T10:44:13.597Z,17.95
2019-02-04T10:46:42.329Z,19.45
2019-02-04T10:49:11.100Z,20.02
2019-02-04T10:51:39.889Z,20.60
2019-02-04T10:54:09.099Z,19.67
2019-02-04T10:56:37.842Z,19.40
2019-02-04T10:59:06.842Z,22.25
2019-02-04T11:01:35.915Z,17.82
2019-02-04T11:04:05.224Z,20.88
2019-02-04T11:06:34.044Z,21.60
2019-02-04T11:09:03.062Z,19.85
2019-02-04T11:11:32.233Z,19.17
2019-02-04T11:14:01.163Z,19.92
2019-02-04T11:16:30.206Z,21.87
2019-02-04T11:18:59.069Z,20.70
2019-02-04T11:21:29.003Z,20.45
2019-02-04T11:23:58.297Z,18.55
2019-02-04T11:26:27.423Z,18.35
2019-02-04T11:28:56.610Z,21.02
2019-02-04T11:31:25.628Z,18.37
2019-02-04T11:33:54.660Z,22.20
2019-02-04T11:36:23.550Z,24.70
2019-02-04T11:38:53.649Z,20.20
2019-02-04T11:43:20.043Z,20.50
2019-02-04T11:45:48.895Z,18.07
2019-02-04T11:48:18.287Z,17.98
2019-02-04T11:50:47.020Z,17.20
2019-02-04T11:53:15.881Z,18.57
2019-02-04T11:55:44.917Z,15.32
2019-02-04T11:58:13.733Z,19.00
2019-02-04T12:00:42.508Z,16.77
2019-02-04T12:03:13.334Z,16.15
2019-02-04T12:05:42.065Z,16.10
2019-02-04T12:08:12.160Z,17.27
2019-02-04T12:10:50.697Z,17.73
2019-02-04T12:13:19.468Z,18.07
2019-02-04T12:15:48.201Z,18.87
2019-02-04T12:18:16.968Z,17.85
2019-02-04T12:20:45.734Z,18.00
2019-02-04T12:23:15.071Z,16.80
2019-02-04T12:25:43.937Z,18.07
2019-02-04T12:28:12.673Z,18.48
2019-02-04T12:30:43.031Z,18.30
2019-02-04T12:33:15.857Z,17.70
2019-02-04T12:35:44.621Z,16.73
2019-02-04T12:38:14.036Z,17.57
2019-02-04T12:40:42.797Z,15.63
2019-02-04T12:43:12.001Z,16.12
2019-02-04T12:45:42.918Z,15.80
2019-02-04T12:48:11.770Z,14.47
2019-02-04T12:50:40.737Z,15.15
2019-02-04T12:53:10.391Z,15.93
2019-02-04T12:55:39.470Z,15.87
2019-02-04T12:58:08.325Z,18.35
2019-02-04T13:00:37.437Z,15.98
2019-02-04T13:03:06.203Z,18.15
2019-02-04T13:05:37.821Z,15.88
2019-02-04T13:08:08.596Z,16.87
2019-02-04T13:10:37.542Z,16.73
2019-02-04T13:13:09.677Z,14.73
2019-02-04T13:15:38.786Z,17.82
2019-02-04T13:18:08.649Z,15.93
2019-02-04T13:20:37.890Z,15.75
2019-02-04T13:23:06.653Z,15.70
2019-02-04T13:25:35.384Z,14.57
2019-02-04T13:28:05.613Z,15.48
2019-02-04T13:30:34.436Z,16.35
2019-02-04T13:33:03.233Z,15.08
2019-02-04T13:35:31.982Z,16.77
2019-02-04T13:38:00.757Z,16.52
2019-02-04T13:40:30.702Z,15.93
2019-02-04T13:42:59.570Z,15.23
2019-02-04T13:45:28.854Z,14.73
2019-02-04T13:47:57.886Z,14.63
2019-02-04T13:50:26.953Z,16.17
2019-02-04T13:52:55.717Z,14.30
2019-02-04T13:55:27.488Z,14.73
2019-02-04T13:57:56.465Z,14.98
2019-02-04T14:00:27.110Z,15.15
2019-02-04T14:02:59.535Z,14.05
2019-02-04T14:05:31.086Z,15.40
2019-02-04T14:07:59.332Z,16.12
2019-02-04T14:10:33.768Z,14.95
2019-02-04T14:13:02.884Z,17.32
2019-02-04T14:15:32.041Z,17.15
2019-02-04T14:18:00.772Z,18.13
2019-02-04T14:20:29.708Z,20.20
2019-02-04T14:22:58.451Z,18.30
2019-02-04T14:25:27.327Z,19.20
2019-02-04T14:27:56.049Z,20.48
2019-02-04T14:30:33.442Z,20.85
2019-02-04T14:33:02.572Z,20.90
2019-02-04T14:35:31.409Z,21.80
2019-02-04T14:38:00.511Z,22.98
2019-02-04T14:40:29.543Z,21.37
2019-02-04T14:43:04.254Z,21.95
2019-02-04T14:45:55.597Z,21.65
2019-02-04T14:48:50.081Z,20.88
2019-02-04T14:51:27.582Z,22.22
2019-02-04T14:54:15.649Z,21.90
2019-02-04T14:57:05.461Z,23.10
2019-02-04T14:59:35.701Z,22.00
2019-02-04T15:02:07.468Z,21.12
2019-02-04T15:04:49.054Z,22.02
2019-02-04T15:07:35.569Z,21.33
2019-02-04T15:10:19.305Z,21.80
2019-02-04T15:13:08.426Z,21.87
2019-02-04T15:15:57.137Z,24.10
2019-02-04T15:18:35.191Z,20.95
2019-02-04T15:21:16.715Z,21.05
2019-02-04T15:23:54.605Z,21.00
2019-02-04T15:26:41.381Z,19.92
2019-02-04T15:29:13.185Z,21.37
2019-02-04T15:31:44.925Z,21.77
2019-02-04T15:34:45.702Z,21.87
2019-02-04T15:37:36.989Z,20.52
2019-02-04T15:40:21.014Z,23.90
2019-02-04T15:43:07.565Z,19.65
2019-02-04T15:45:41.973Z,18.87
2019-02-04T15:48:12.118Z,19.82
2019-02-04T15:51:00.406Z,20.25
2019-02-04T15:53:31.333Z,19.60
2019-02-04T15:56:02.900Z,20.72
2019-02-04T15:58:35.346Z,20.47
2019-02-04T16:01:08.934Z,20.55
2019-02-04T16:03:40.978Z,21.05
2019-02-04T16:06:12.192Z,20.10
2019-02-04T16:08:43.796Z,19.15
2019-02-04T16:11:12.525Z,19.37
2019-02-04T16:13:41.330Z,18.87
2019-02-04T16:16:10.461Z,19.67
2019-02-04T16:18:42.015Z,19.07
2019-02-04T16:21:11.137Z,19.67
2019-02-04T16:23:39.999Z,19.90
2019-02-04T16:26:09.000Z,19.85
2019-02-04T16:28:37.764Z,20.08
2019-02-04T16:31:06.771Z,19.77
2019-02-04T16:33:35.533Z,21.53
2019-02-04T16:36:04.489Z,21.15
2019-02-04T16:38:33.258Z,21.85
2019-02-04T16:41:02.007Z,22.13
2019-02-04T16:43:30.773Z,21.57
2019-02-04T16:45:59.565Z,20.45
2019-02-04T16:48:28.335Z,23.90
2019-02-04T16:51:10.868Z,22.15
2019-02-04T16:53:27.560Z,22.75
2019-02-04T16:55:56.513Z,22.48
2019-02-04T16:58:25.285Z,22.32
2019-02-04T17:00:54.561Z,23.92
2019-02-04T17:03:23.368Z,23.95
2019-02-04T17:05:52.113Z,22.52
2019-02-04T17:08:20.885Z,23.47
2019-02-04T17:10:50.099Z,23.20
2019-02-04T17:13:18.865Z,23.02
2019-02-04T17:15:47.681Z,24.52
2019-02-04T17:18:16.520Z,25.08
2019-02-04T17:20:45.261Z,24.50
2019-02-04T17:23:21.870Z,24.67
2019-02-04T17:25:44.480Z,21.90
2019-02-04T17:28:13.217Z,26.80
2019-02-04T17:30:41.986Z,23.57
2019-02-04T17:33:10.725Z,25.35
2019-02-04T17:35:39.525Z,24.87
2019-02-04T17:38:08.274Z,24.07
2019-02-04T17:40:37.036Z,25.35
2019-02-04T17:43:06.174Z,24.23
2019-02-04T17:45:35.284Z,23.25
2019-02-04T17:48:05.229Z,25.88
2019-02-04T17:50:33.996Z,27.07
2019-02-04T17:53:02.886Z,27.05
2019-02-04T17:55:33.345Z,26.10
2019-02-04T17:58:02.275Z,28.60
2019-02-04T18:00:39.458Z,27.32
2019-02-04T18:03:09.226Z,27.85
2019-02-04T18:05:38.507Z,26.90
2019-02-04T18:08:08.906Z,26.75
2019-02-04T18:10:37.668Z,27.15
2019-02-04T18:13:06.893Z,29.15
2019-02-04T18:15:37.645Z,29.85
2019-02-04T18:18:06.605Z,27.25
2019-02-04T18:20:36.582Z,25.75
2019-02-04T18:23:06.610Z,26.42
2019-02-04T18:25:36.821Z,28.43
2019-02-04T18:28:05.772Z,28.98
2019-02-04T18:30:34.921Z,30.85
2019-02-04T18:33:03.691Z,29.15
2019-02-04T18:35:33.159Z,31.73
2019-02-04T18:38:01.973Z,32.38
2019-02-04T18:40:30.724Z,30.10
2019-02-04T18:42:59.602Z,31.00
2019-02-04T18:45:33.288Z,28.30
2019-02-04T18:48:03.014Z,31.65
2019-02-04T18:50:32.238Z,27.42
2019-02-04T18:53:01.026Z,31.68
2019-02-04T18:55:34.037Z,30.02
2019-02-04T18:58:04.368Z,27.45
2019-02-04T19:00:33.944Z,29.15
2019-02-04T19:03:16.613Z,29.07
2019-02-04T19:05:35.100Z,29.07
2019-02-04T19:08:04.012Z,31.20
2019-02-04T19:10:32.785Z,31.87
2019-02-04T19:13:01.541Z,29.30
2019-02-04T19:15:30.877Z,27.15
2019-02-04T19:18:06.170Z,28.27
2019-02-04T19:20:35.750Z,26.87
2019-02-04T19:23:05.081Z,28.02
2019-02-04T19:25:33.921Z,28.45
2019-02-04T19:28:02.750Z,27.77
2019-02-04T19:30:37.417Z,25.85
2019-02-04T19:33:06.256Z,24.92
2019-02-04T19:35:35.101Z,24.85
2019-02-04T19:38:04.196Z,27.80
2019-02-04T19:40:33.192Z,27.87
2019-02-04T19:43:02.548Z,25.77
2019-02-04T19:45:31.762Z,25.70
2019-02-04T19:48:03.099Z,26.75
2019-02-04T19:50:36.567Z,26.95
2019-02-04T19:53:06.402Z,27.87
2019-02-04T19:55:35.378Z,26.30
2019-02-04T19:58:04.950Z,30.20
2019-02-04T20:00:33.697Z,26.93
2019-02-04T20:03:03.065Z,26.37
2019-02-04T20:05:32.854Z,28.62
2019-02-04T20:08:01.740Z,31.35
2019-02-04T20:10:33.208Z,28.40
2019-02-04T20:13:02.650Z,29.50
2019-02-04T20:15:32.493Z,29.10
2019-02-04T20:18:01.251Z,29.77
2019-02-04T20:20:30.115Z,29.92
2019-02-04T20:22:59.030Z,29.40
2019-02-04T20:25:30.632Z,29.95
2019-02-04T20:27:59.557Z,30.17
2019-02-04T20:30:44.680Z,29.77
2019-02-04T20:33:04.406Z,31.23
2019-02-04T20:35:33.268Z,31.75
2019-02-04T20:38:01.993Z,30.62
2019-02-04T20:40:30.862Z,30.57
2019-02-04T20:42:59.942Z,31.25
2019-02-04T20:45:28.906Z,31.37
2019-02-04T20:47:57.694Z,29.12
2019-02-04T20:50:34.285Z,29.72
2019-02-04T20:53:03.159Z,29.23
2019-02-04T20:55:31.893Z,30.40
2019-02-04T20:58:00.960Z,29.80
2019-02-04T21:00:31.082Z,30.90
2019-02-04T21:03:01.888Z,29.00
2019-02-04T21:05:30.340Z,32.00
2019-02-04T21:07:59.116Z,29.98
2019-02-04T21:10:29.337Z,32.07
2019-02-04T21:12:58.605Z,33.50
2019-02-04T21:15:27.353Z,32.40
2019-02-04T21:17:56.127Z,32.08
2019-02-04T21:20:27.032Z,31.65
2019-02-04T21:22:55.901Z,32.95
2019-02-04T21:25:25.064Z,31.68
2019-02-04T21:27:54.149Z,30.83
2019-02-04T21:30:25.068Z,31.52
2019-02-04T21:32:56.201Z,30.20
2019-02-04T21:35:29.780Z,33.13
2019-02-04T21:38:09.187Z,31.35
2019-02-04T21:40:35.459Z,32.40
2019-02-04T21:43:04.629Z,30.10
2019-02-04T21:45:33.456Z,33.55
2019-02-04T21:48:02.285Z,30.02
2019-02-04T21:50:31.028Z,30.02
2019-02-04T21:52:59.861Z,28.70
2019-02-04T21:55:28.605Z,31.15
2019-02-04T21:57:57.374Z,30.12
2019-02-04T22:00:39.530Z,29.83
2019-02-04T22:03:08.321Z,28.85
2019-02-04T22:05:37.157Z,28.07
2019-02-04T22:08:06.296Z,27.75
2019-02-04T22:10:35.342Z,27.98
2019-02-04T22:13:04.292Z,27.40
2019-02-04T22:15:33.430Z,27.60
2019-02-04T22:18:02.286Z,30.17
2019-02-04T22:20:31.020Z,29.05
2019-02-04T22:22:59.878Z,28.77
2019-02-04T22:25:28.721Z,29.23
2019-02-04T22:27:57.617Z,32.88
2019-02-04T22:30:28.387Z,30.00
2019-02-04T22:32:57.393Z,28.75
2019-02-04T22:35:26.657Z,30.02
2019-02-04T22:37:55.421Z,29.20
2019-02-04T22:40:26.195Z,29.65
2019-02-04T22:42:55.533Z,28.92
2019-02-04T22:45:24.405Z,29.05
2019-02-04T22:47:53.340Z,28.60
2019-02-04T22:50:25.049Z,27.93
2019-02-04T22:52:53.800Z,28.70
2019-02-04T22:55:31.590Z,28.32
2019-02-04T22:57:53.857Z,27.27
2019-02-04T23:00:41.751Z,27.73
2019-02-04T23:03:11.800Z,26.40
2019-02-04T23:05:40.536Z,25.75
2019-02-04T23:08:09.421Z,27.00
2019-02-04T23:10:38.265Z,26.57
2019-02-04T23:13:07.409Z,28.75
2019-02-04T23:15:36.321Z,27.00
2019-02-04T23:18:05.985Z,26.85
2019-02-04T23:20:34.856Z,27.42
2019-02-04T23:23:03.729Z,27.42
2019-02-04T23:25:42.695Z,28.00
2019-02-04T23:28:02.957Z,28.87
2019-02-04T23:30:31.706Z,28.07
2019-02-04T23:33:00.468Z,27.90
2019-02-04T23:35:29.212Z,26.60
2019-02-04T23:37:57.965Z,27.02
2019-02-04T23:40:26.841Z,24.85
2019-02-04T23:42:55.636Z,24.90
2019-02-04T23:45:24.507Z,25.32
2019-02-04T23:47:53.248Z,24.87
2019-02-04T23:50:22.197Z,24.10
2019-02-04T23:52:50.937Z,23.87
2019-02-04T23:55:19.811Z,23.55
2019-02-04T23:57:48.548Z,23.80
